Time;durP1;ratioP1;P1;durP2;ratioP2;P2;SDS_P1;SDS_P2;PMS_P1;PMS_P2;Temp;Humidity;BMP_temperature;BMP_pressure;BME280_temperature;BME280_humidity;BME280_pressure;Samples;Min_cycle;Max_cycle;Signal;HPM_P1;HPM_P2
2022/01/27 00:01:11;;;;;;;24.40;10.80;;;;;;;2.68;72.13;100881.72;4446321;32;34591;-66
2022/01/27 00:04:00;;;;;;;26.23;11.18;;;;;;;2.19;74.56;100880.56;4467994;32;34029;-65
2022/01/27 00:06:30;;;;;;;24.67;10.63;;;;;;;2.68;72.18;100882.59;4454037;32;34720;-67
2022/01/27 00:09:06;;;;;;;26.60;10.95;;;;;;;1.93;74.41;100883.16;4466202;32;34132;-64
2022/01/27 00:11:34;;;;;;;28.90;11.35;;;;;;;2.03;74.35;100879.81;4467445;32;33614;-65
2022/01/27 00:14:02;;;;;;;25.50;11.88;;;;;;;3.25;69.96;100875.03;4468475;32;33748;-64
2022/01/27 00:16:35;;;;;;;24.48;10.55;;;;;;;3.34;68.56;100874.94;4470254;32;34559;-65
2022/01/27 00:19:02;;;;;;;25.05;11.00;;;;;;;3.72;67.61;100874.94;4469097;32;33936;-65
2022/01/27 00:21:31;;;;;;;26.17;10.88;;;;;;;2.66;71.42;100880.66;4470985;32;33784;-65
2022/01/27 00:23:58;;;;;;;25.20;10.65;;;;;;;2.66;71.04;100883.22;4468609;32;33966;-66
2022/01/27 00:26:26;;;;;;;28.65;10.77;;;;;;;2.50;71.44;100876.66;4468294;32;33695;-64
2022/01/27 00:28:54;;;;;;;23.70;10.32;;;;;;;3.41;68.42;100861.06;4454892;32;33566;-65
2022/01/27 00:31:22;;;;;;;26.48;10.50;;;;;;;2.37;71.11;100869.50;4470601;32;34588;-65
2022/01/27 00:33:51;;;;;;;21.10;9.48;;;;;;;2.20;72.70;100864.44;4469617;32;33994;-66
2022/01/27 00:36:19;;;;;;;23.17;10.10;;;;;;;2.56;71.25;100866.12;4469188;32;34641;-65
2022/01/27 00:38:46;;;;;;;23.98;9.75;;;;;;;2.46;71.24;100860.91;4452642;32;32629;-65
2022/01/27 00:41:14;;;;;;;26.50;10.60;;;;;;;2.54;70.99;100858.28;4456829;32;33590;-65
2022/01/27 00:43:43;;;;;;;28.23;10.00;;;;;;;2.46;71.28;100874.59;4461087;32;34803;-66
2022/01/27 00:46:15;;;;;;;25.83;11.02;;;;;;;2.38;71.96;100870.41;4469922;32;34778;-65
2022/01/27 00:48:48;;;;;;;25.70;10.77;;;;;;;2.76;70.29;100873.06;4471166;32;34090;-65
2022/01/27 00:51:22;;;;;;;28.95;10.82;;;;;;;2.25;71.76;100867.44;4470446;32;34543;-65
2022/01/27 00:54:04;;;;;;;25.05;10.43;;;;;;;2.51;71.43;100873.38;4467051;32;34613;-64
2022/01/27 00:56:43;;;;;;;23.98;10.80;;;;;;;2.40;71.76;100863.78;4470867;32;34822;-67
2022/01/27 01:01:42;;;;;;;28.35;11.63;;;;;;;2.33;72.28;100871.63;4470788;32;34435;-66
2022/01/27 01:04:11;;;;;;;27.52;10.90;;;;;;;2.76;70.37;100865.41;4469436;32;34037;-65
2022/01/27 01:06:43;;;;;;;25.85;9.70;;;;;;;2.95;69.38;100874.06;4470468;32;34622;-65
2022/01/27 01:14:47;;;;;;;25.20;10.35;;;;;;;2.34;70.88;100869.22;4470240;32;34638;-65
2022/01/27 01:30:47;;;;;;;27.13;10.75;;;;;;;2.08;71.67;100846.28;4458447;32;33838;-65
2022/01/27 01:33:21;;;;;;;30.67;12.75;;;;;;;3.00;68.54;100840.28;4469235;32;33698;-66
2022/01/27 01:35:50;;;;;;;26.12;10.55;;;;;;;2.65;69.33;100843.06;4457761;32;33358;-64
2022/01/27 01:38:19;;;;;;;26.87;11.12;;;;;;;2.98;68.57;100836.69;4467604;32;33890;-66
2022/01/27 01:40:48;;;;;;;25.75;11.15;;;;;;;3.15;67.54;100827.22;4469739;32;34122;-64
2022/01/27 01:43:16;;;;;;;25.83;11.60;;;;;;;2.63;69.34;100831.78;4469345;32;34472;-64
2022/01/27 01:45:45;;;;;;;26.83;10.75;;;;;;;2.45;70.44;100830.97;4467713;32;34665;-65
2022/01/27 01:48:15;;;;;;;27.35;10.38;;;;;;;2.38;69.40;100829.50;4469640;32;33324;-64
2022/01/27 01:50:43;;;;;;;24.50;9.70;;;;;;;2.10;71.21;100824.34;4468415;32;33631;-66
2022/01/27 01:53:10;;;;;;;25.23;10.75;;;;;;;1.97;72.20;100826.50;4469317;32;33803;-64
2022/01/27 01:55:38;;;;;;;24.45;11.07;;;;;;;1.58;73.29;100832.12;4468156;32;34487;-65
2022/01/27 01:58:06;;;;;;;22.37;10.13;;;;;;;2.59;69.65;100838.28;4468952;32;34718;-66
2022/01/27 02:00:33;;;;;;;29.08;11.82;;;;;;;2.54;69.48;100840.37;4450028;32;33873;-66
2022/01/27 02:03:01;;;;;;;23.48;9.82;;;;;;;2.48;70.09;100842.38;4469602;32;33446;-64
2022/01/27 02:05:33;;;;;;;27.35;11.18;;;;;;;2.56;70.12;100841.44;4469768;32;34503;-65
2022/01/27 02:19:26;;;;;;;26.48;11.12;;;;;;;2.43;70.05;100833.37;4469587;32;33940;-66
2022/01/27 02:21:56;;;;;;;27.35;10.27;;;;;;;1.96;72.15;100814.47;4469877;32;34107;-65
2022/01/27 02:24:26;;;;;;;29.60;11.20;;;;;;;2.74;69.09;100811.56;4469721;32;33878;-66
2022/01/27 02:26:53;;;;;;;27.15;11.15;;;;;;;2.35;69.54;100811.31;4466743;32;33766;-66
2022/01/27 02:29:21;;;;;;;28.15;9.90;;;;;;;2.76;69.10;100798.88;4468045;32;33787;-65
2022/01/27 02:31:51;;;;;;;27.62;11.12;;;;;;;1.87;72.52;100798.25;4465759;32;34838;-66
2022/01/27 02:34:19;;;;;;;30.50;11.02;;;;;;;1.42;73.60;100803.31;4468662;32;34380;-65
2022/01/27 02:36:47;;;;;;;27.33;11.63;;;;;;;2.04;72.28;100804.97;4467916;32;34847;-64
2022/01/27 02:39:15;;;;;;;27.10;10.73;;;;;;;2.29;71.09;100797.97;4464803;32;35314;-66
2022/01/27 02:41:45;;;;;;;27.33;10.68;;;;;;;2.26;70.92;100793.47;4464269;32;33717;-65
2022/01/27 02:44:29;;;;;;;25.25;11.27;;;;;;;1.68;73.26;100783.75;4468414;32;33575;-65
2022/01/27 02:46:57;;;;;;;26.83;11.12;;;;;;;1.44;74.22;100781.41;4468363;32;33901;-64
2022/01/27 02:49:25;;;;;;;25.40;10.65;;;;;;;1.71;72.87;100778.03;4452832;32;33700;-65
2022/01/27 02:51:53;;;;;;;23.45;10.27;;;;;;;1.57;73.54;100776.72;4469213;32;34783;-66
2022/01/27 02:54:21;;;;;;;20.00;9.43;;;;;;;1.77;72.97;100782.06;4468020;32;34536;-65
2022/01/27 02:56:48;;;;;;;26.95;10.40;;;;;;;2.66;70.10;100780.91;4468522;32;34675;-67
2022/01/27 02:59:18;;;;;;;24.12;10.57;;;;;;;2.60;69.88;100775.22;4468780;32;33807;-65
2022/01/27 03:01:47;;;;;;;24.25;10.63;;;;;;;2.38;70.33;100775.81;4467612;32;33921;-65
2022/01/27 03:04:16;;;;;;;25.83;10.73;;;;;;;2.44;70.04;100773.81;4468632;32;33503;-66
2022/01/27 03:06:44;;;;;;;19.60;8.98;;;;;;;2.29;70.35;100772.37;4468287;32;34043;-65
2022/01/27 03:09:13;;;;;;;24.10;9.63;;;;;;;2.82;68.96;100771.31;4469108;32;34647;-65
2022/01/27 03:11:45;;;;;;;25.05;10.13;;;;;;;2.58;69.26;100779.31;4467642;32;33913;-65
2022/01/27 03:14:16;;;;;;;24.23;10.30;;;;;;;2.44;69.92;100785.72;4468398;32;33797;-66
2022/01/27 03:16:44;;;;;;;24.15;10.02;;;;;;;1.79;71.51;100796.63;4468217;32;33790;-65
2022/01/27 03:19:12;;;;;;;24.75;10.50;;;;;;;1.66;72.42;100790.38;4467249;32;34830;-66
2022/01/27 03:21:40;;;;;;;18.27;8.63;;;;;;;1.66;72.03;100802.22;4464943;32;33669;-66
2022/01/27 03:24:08;;;;;;;21.27;8.98;;;;;;;1.86;71.70;100796.47;4450844;32;34215;-64
2022/01/27 03:26:35;;;;;;;26.67;10.20;;;;;;;2.33;69.60;100787.25;4466522;32;33791;-64
2022/01/27 03:29:03;;;;;;;24.87;10.82;;;;;;;1.42;72.52;100790.56;4465177;32;33529;-64
2022/01/27 03:31:31;;;;;;;25.33;9.32;;;;;;;1.63;71.73;100782.41;4460573;32;34481;-65
2022/01/27 03:33:58;;;;;;;24.58;10.32;;;;;;;1.69;71.76;100789.75;4464900;32;33421;-65
2022/01/27 03:36:26;;;;;;;24.48;8.68;;;;;;;1.34;72.01;100784.72;4468613;32;33759;-65
2022/01/27 03:38:53;;;;;;;23.38;10.10;;;;;;;1.55;71.69;100788.44;4454926;32;34484;-64
2022/01/27 03:41:22;;;;;;;22.15;10.15;;;;;;;1.85;70.39;100779.34;4468390;32;34862;-64
2022/01/27 03:43:51;;;;;;;21.23;10.02;;;;;;;2.31;68.54;100774.31;4468322;32;33682;-65
2022/01/27 03:46:19;;;;;;;22.80;9.55;;;;;;;2.01;69.17;100780.03;4468259;32;33779;-67
2022/01/27 03:48:46;;;;;;;23.60;9.95;;;;;;;1.51;71.00;100765.91;4468246;32;32490;-65
2022/01/27 03:51:14;;;;;;;23.65;9.98;;;;;;;1.68;70.60;100765.87;4459876;32;34908;-64
2022/01/27 03:53:41;;;;;;;26.23;9.52;;;;;;;1.36;71.91;100762.78;4469894;32;33558;-65
2022/01/27 03:56:09;;;;;;;29.20;10.73;;;;;;;1.41;72.33;100763.22;4467963;32;33774;-64
2022/01/27 03:58:37;;;;;;;21.33;9.73;;;;;;;1.18;72.62;100757.69;4455725;32;32275;-64
2022/01/27 04:01:06;;;;;;;21.00;9.15;;;;;;;1.64;70.92;100750.09;4470175;32;34146;-64
2022/01/27 04:03:37;;;;;;;22.10;10.15;;;;;;;1.55;71.10;100750.13;4469703;32;33426;-66
2022/01/27 04:06:09;;;;;;;23.12;10.38;;;;;;;1.52;71.33;100748.16;4467055;32;34465;-64
2022/01/27 04:08:38;;;;;;;20.92;8.88;;;;;;;1.60;71.26;100761.66;4470646;32;33860;-65
2022/01/27 04:11:08;;;;;;;21.92;9.85;;;;;;;1.84;69.98;100769.88;4469488;32;34068;-65
2022/01/27 04:13:36;;;;;;;27.67;10.48;;;;;;;1.56;70.43;100767.25;4470532;32;34566;-64
2022/01/27 04:16:05;;;;;;;22.08;10.88;;;;;;;1.69;69.98;100770.22;4470352;32;33828;-65
2022/01/27 04:18:32;;;;;;;23.17;10.18;;;;;;;1.74;70.11;100761.34;4455945;32;32316;-64
2022/01/27 04:20:59;;;;;;;20.85;9.85;;;;;;;1.48;70.73;100766.50;4469664;32;35026;-65
2022/01/27 04:23:27;;;;;;;20.58;10.43;;;;;;;1.44;70.80;100768.63;4469893;32;34341;-64
2022/01/27 04:25:54;;;;;;;26.58;9.50;;;;;;;1.54;70.58;100773.84;4469458;32;33898;-64
2022/01/27 04:28:29;;;;;;;20.45;10.85;;;;;;;1.62;70.48;100778.03;4469887;32;34506;-64
2022/01/27 04:30:59;;;;;;;;;;;;;;;1.88;69.60;100777.09;4470925;32;34083;-67
2022/01/27 04:33:29;;;;;;;18.15;7.87;;;;;;;2.19;68.03;100775.75;4469918;32;33664;-65
2022/01/27 04:36:00;;;;;;;26.85;10.93;;;;;;;1.92;68.45;100771.50;4468897;32;33957;-66
2022/01/27 04:43:45;;;;;;;24.45;10.80;;;;;;;2.31;67.55;100768.31;4468829;32;34092;-65
2022/01/27 04:46:41;;;;;;;21.80;9.68;;;;;;;1.69;69.35;100770.22;4467191;32;34560;-66
2022/01/27 04:49:04;;;;;;;24.42;10.57;;;;;;;1.99;68.52;100781.56;4467560;32;34542;-64
2022/01/27 04:51:31;;;;;;;25.05;10.95;;;;;;;2.10;68.07;100760.44;4468129;32;33863;-66
2022/01/27 04:54:05;;;;;;;21.62;10.70;;;;;;;2.28;67.49;100765.47;4468406;32;33940;-65
2022/01/27 04:56:36;;;;;;;26.02;10.95;;;;;;;2.23;67.94;100761.59;4469319;32;33999;-65
2022/01/27 04:59:09;;;;;;;23.58;10.40;;;;;;;2.21;68.10;100768.22;4452255;32;33165;-66
2022/01/27 05:02:03;;;;;;;26.98;12.18;;;;;;;1.64;69.84;100779.13;4468137;32;34215;-64
2022/01/27 05:04:30;;;;;;;25.80;10.55;;;;;;;1.65;70.00;100772.34;4469400;32;33436;-65
2022/01/27 05:06:58;;;;;;;26.60;12.00;;;;;;;2.12;68.68;100758.91;4467690;32;34509;-65
2022/01/27 05:09:25;;;;;;;26.95;10.95;;;;;;;1.61;69.79;100766.03;4469369;32;34003;-64
2022/01/27 05:12:06;;;;;;;24.15;12.00;;;;;;;1.49;70.52;100759.78;4468489;32;34076;-66
2022/01/27 05:14:34;;;;;;;26.55;10.90;;;;;;;1.55;70.70;100762.91;4469446;32;34402;-66
2022/01/27 05:17:02;;;;;;;26.30;11.77;;;;;;;2.19;68.39;100759.53;4468465;32;33777;-66
2022/01/27 05:19:29;;;;;;;26.30;11.35;;;;;;;1.34;71.18;100752.41;4468737;32;33919;-65
2022/01/27 05:21:57;;;;;;;21.42;10.48;;;;;;;2.27;68.56;100754.34;4462671;32;33892;-65
2022/01/27 05:24:24;;;;;;;26.25;10.93;;;;;;;2.16;68.07;100755.94;4466096;32;33920;-66
2022/01/27 05:26:52;;;;;;;19.83;10.65;;;;;;;2.12;68.75;100764.03;4467536;32;33850;-64
2022/01/27 05:29:20;;;;;;;25.50;11.85;;;;;;;2.07;69.24;100759.28;4459515;32;33625;-65
2022/01/27 05:31:48;;;;;;;25.77;11.43;;;;;;;2.30;68.20;100771.66;4465875;32;33782;-66
2022/01/27 05:34:15;;;;;;;25.88;10.75;;;;;;;1.53;70.35;100761.84;4468671;32;33291;-64
2022/01/27 05:36:43;;;;;;;23.75;10.32;;;;;;;1.91;70.13;100767.12;4468823;32;34603;-64
2022/01/27 05:39:10;;;;;;;23.60;11.07;;;;;;;1.84;69.97;100762.22;4468817;32;34962;-64
2022/01/27 05:41:38;;;;;;;28.12;11.38;;;;;;;2.08;69.41;100772.16;4452845;32;34574;-65
2022/01/27 05:44:05;;;;;;;24.02;10.80;;;;;;;2.13;69.47;100759.84;4467682;32;33727;-66
2022/01/27 05:46:33;;;;;;;23.60;10.50;;;;;;;2.09;68.88;100748.44;4469720;32;34619;-64
2022/01/27 05:49:01;;;;;;;23.60;10.77;;;;;;;1.63;70.70;100753.41;4455374;32;34651;-64
2022/01/27 05:51:28;;;;;;;24.73;12.52;;;;;;;1.49;70.81;100754.66;4468781;32;34195;-65
2022/01/27 05:53:56;;;;;;;22.75;11.43;;;;;;;1.32;71.98;100750.47;4468878;32;34441;-67
2022/01/27 05:56:23;;;;;;;24.33;11.40;;;;;;;1.24;72.34;100754.84;4468640;32;34269;-65
2022/01/27 05:58:51;;;;;;;25.90;11.95;;;;;;;1.33;71.83;100748.09;4464587;32;32427;-65
2022/01/27 06:01:18;;;;;;;24.65;10.77;;;;;;;1.53;71.42;100746.53;4466004;32;34245;-65
2022/01/27 06:03:46;;;;;;;27.05;12.32;;;;;;;1.86;70.55;100750.50;4469885;32;33463;-65
2022/01/27 06:06:13;;;;;;;25.92;11.70;;;;;;;1.46;71.57;100744.12;4469688;32;36744;-64
2022/01/27 06:08:41;;;;;;;30.65;13.05;;;;;;;1.35;72.53;100740.53;4469255;32;33589;-64
2022/01/27 06:11:08;;;;;;;26.00;12.85;;;;;;;1.49;72.29;100741.91;4469029;32;34846;-65
2022/01/27 06:13:36;;;;;;;28.27;11.88;;;;;;;1.58;71.66;100732.53;4468533;32;34441;-63
2022/01/27 06:16:10;;;;;;;25.08;12.30;;;;;;;1.46;72.25;100739.03;4470202;32;34776;-64
2022/01/27 06:18:39;;;;;;;28.00;12.63;;;;;;;1.53;72.19;100733.78;4465363;32;33706;-65
2022/01/27 06:21:07;;;;;;;26.52;12.80;;;;;;;1.41;72.40;100732.56;4468514;32;32852;-63
2022/01/27 06:23:34;;;;;;;28.23;12.32;;;;;;;1.55;72.16;100737.38;4468842;32;33762;-65
2022/01/27 06:26:03;;;;;;;28.58;13.32;;;;;;;1.86;71.37;100737.72;4467828;32;34775;-66
2022/01/27 06:28:30;;;;;;;28.90;12.70;;;;;;;2.79;67.92;100736.88;4469602;32;34592;-65
2022/01/27 06:30:57;;;;;;;31.37;13.27;;;;;;;1.82;70.88;100750.97;4465667;32;34518;-65
2022/01/27 06:33:26;;;;;;;26.58;12.25;;;;;;;2.16;70.26;100740.59;4454257;32;33688;-64
2022/01/27 06:35:53;;;;;;;32.85;11.65;;;;;;;1.59;71.75;100754.78;4468305;32;33876;-65
2022/01/27 06:38:20;;;;;;;29.12;12.55;;;;;;;2.09;69.83;100756.09;4468955;32;33992;-63
2022/01/27 06:40:48;;;;;;;25.65;11.32;;;;;;;1.94;70.85;100749.56;4455535;32;34810;-66
2022/01/27 06:43:15;;;;;;;32.80;13.20;;;;;;;2.38;69.32;100763.03;4468734;32;33327;-64
2022/01/27 06:45:43;;;;;;;29.80;12.02;;;;;;;1.93;70.92;100768.19;4467075;32;33899;-66
2022/01/27 06:48:11;;;;;;;26.10;12.32;;;;;;;2.42;69.67;100770.22;4443807;32;33959;-65
2022/01/27 06:50:39;;;;;;;25.80;13.35;;;;;;;2.63;68.14;100780.63;4460983;32;33843;-65
2022/01/27 06:53:06;;;;;;;26.40;12.48;;;;;;;2.07;70.46;100783.16;4465197;32;34327;-64
2022/01/27 06:55:34;;;;;;;29.63;13.82;;;;;;;2.09;69.96;100789.31;4450289;32;33924;-65
2022/01/27 06:58:01;;;;;;;28.85;14.05;;;;;;;2.32;69.79;100794.03;4462253;32;33715;-65
2022/01/27 07:00:29;;;;;;;31.98;14.63;;;;;;;2.05;69.98;100791.44;4463321;32;33589;-65
2022/01/27 07:02:57;;;;;;;28.30;14.15;;;;;;;1.98;70.38;100789.06;4447273;32;34176;-65
2022/01/27 07:05:24;;;;;;;26.00;13.13;;;;;;;2.05;70.83;100787.25;4466966;32;33235;-64
2022/01/27 07:07:51;;;;;;;29.95;14.27;;;;;;;2.20;69.67;100779.19;4464811;32;34920;-65
2022/01/27 07:10:19;;;;;;;28.05;13.02;;;;;;;2.48;69.44;100775.87;4433131;32;34258;-64
2022/01/27 07:12:47;;;;;;;26.17;12.63;;;;;;;2.12;69.96;100778.47;4468662;32;34435;-65
2022/01/27 07:15:14;;;;;;;29.48;13.70;;;;;;;1.96;70.98;100776.16;4469371;32;33974;-66
2022/01/27 07:17:42;;;;;;;28.00;12.82;;;;;;;1.76;71.51;100777.72;4462514;32;33762;-64
2022/01/27 07:20:11;;;;;;;28.20;12.35;;;;;;;2.23;70.12;100779.50;4467975;32;34856;-65
2022/01/27 07:22:44;;;;;;;30.83;13.23;;;;;;;2.58;68.67;100775.06;4464536;32;33894;-65
2022/01/27 07:25:12;;;;;;;29.92;13.48;;;;;;;2.61;68.23;100771.88;4466807;32;33758;-66
2022/01/27 07:27:39;;;;;;;27.95;13.27;;;;;;;2.45;68.64;100775.59;4453214;32;32407;-64
2022/01/27 07:30:07;;;;;;;31.62;12.85;;;;;;;2.77;67.14;100766.53;4463459;32;34865;-64
2022/01/27 07:32:37;;;;;;;31.17;13.88;;;;;;;2.33;68.55;100761.69;4465541;32;34369;-66
2022/01/27 07:35:05;;;;;;;24.27;12.68;;;;;;;2.49;68.22;100761.44;4460083;32;34743;-65
2022/01/27 07:37:32;;;;;;;28.27;12.95;;;;;;;2.70;68.07;100747.16;4467086;32;33723;-63
2022/01/27 07:40:00;;;;;;;26.08;11.45;;;;;;;1.88;70.04;100756.66;4465812;32;34106;-64
2022/01/27 07:42:27;;;;;;;28.98;12.02;;;;;;;2.49;67.85;100752.13;4468146;32;33553;-66
2022/01/27 07:44:55;;;;;;;25.70;13.10;;;;;;;2.21;68.91;100743.56;4465469;32;32582;-65
2022/01/27 07:47:22;;;;;;;24.90;10.88;;;;;;;2.62;67.00;100738.78;4467480;32;33952;-65
2022/01/27 07:49:50;;;;;;;23.48;11.75;;;;;;;2.68;66.92;100741.91;4467206;32;36205;-65
2022/01/27 07:52:19;;;;;;;20.50;9.93;;;;;;;2.65;67.35;100740.75;4464872;32;33874;-64
2022/01/27 07:54:47;;;;;;;23.45;11.12;;;;;;;2.20;68.67;100736.62;4465493;32;33812;-65
2022/01/27 07:57:15;;;;;;;22.92;11.85;;;;;;;2.40;67.95;100725.72;4455631;32;34045;-64
2022/01/27 07:59:43;;;;;;;25.58;10.57;;;;;;;1.94;69.16;100736.78;4465263;32;33886;-65
2022/01/27 08:02:11;;;;;;;25.83;11.15;;;;;;;2.31;68.19;100735.97;4463101;32;34113;-65
2022/01/27 08:04:39;;;;;;;23.73;12.23;;;;;;;2.22;68.54;100734.22;4444104;32;33531;-64
2022/01/27 08:07:08;;;;;;;27.40;11.05;;;;;;;2.90;66.71;100729.41;4457883;32;32817;-65
2022/01/27 08:09:35;;;;;;;25.10;11.25;;;;;;;2.58;67.92;100725.59;4462139;32;34866;-64
2022/01/27 08:12:03;;;;;;;27.98;11.75;;;;;;;2.83;66.29;100729.59;4465063;32;33783;-65
2022/01/27 08:14:30;;;;;;;26.05;11.48;;;;;;;3.13;65.65;100730.56;4459366;32;34123;-64
2022/01/27 08:16:58;;;;;;;22.40;10.98;;;;;;;2.60;67.20;100730.06;4461975;32;33812;-64
2022/01/27 08:19:26;;;;;;;23.60;10.45;;;;;;;2.28;68.49;100724.56;4465586;32;33940;-64
2022/01/27 08:21:53;;;;;;;25.92;11.85;;;;;;;2.38;68.01;100732.34;4459068;32;34344;-64
2022/01/27 08:24:20;;;;;;;31.45;14.40;;;;;;;2.28;68.64;100733.16;4460495;32;34724;-64
2022/01/27 08:26:50;;;;;;;22.48;11.07;;;;;;;3.19;65.66;100723.44;4457360;32;33813;-64
2022/01/27 08:29:24;;;;;;;30.50;12.07;;;;;;;2.97;66.10;100728.28;4455942;32;34925;-64
2022/01/27 08:32:17;;;;;;;27.02;11.43;;;;;;;2.99;66.42;100733.53;4449520;32;33828;-64
2022/01/27 08:34:45;;;;;;;23.33;10.60;;;;;;;3.27;65.04;100735.25;4448968;32;33457;-64
2022/01/27 08:37:14;;;;;;;26.02;12.73;;;;;;;3.53;64.21;100728.94;4467784;32;32599;-63
2022/01/27 08:39:42;;;;;;;22.10;10.73;;;;;;;2.66;67.06;100724.63;4463672;32;34632;-65
2022/01/27 08:42:10;;;;;;;24.08;10.68;;;;;;;2.92;65.84;100720.19;4453885;32;33780;-64
2022/01/27 08:44:37;;;;;;;26.45;12.18;;;;;;;2.90;66.43;100724.28;4466826;32;33970;-65
2022/01/27 08:47:06;;;;;;;28.15;10.05;;;;;;;2.62;66.68;100709.75;4463277;32;33799;-63
2022/01/27 08:49:34;;;;;;;21.00;9.20;;;;;;;3.43;64.92;100710.97;4467577;32;34016;-65
2022/01/27 08:52:03;;;;;;;21.90;8.57;;;;;;;3.27;64.30;100719.88;4470576;32;34258;-65
2022/01/27 08:54:31;;;;;;;23.90;10.90;;;;;;;3.30;64.76;100720.16;4464923;32;33605;-65
2022/01/27 08:56:59;;;;;;;20.92;9.02;;;;;;;2.84;66.09;100725.37;4465191;32;34057;-64
2022/01/27 08:59:27;;;;;;;19.58;9.05;;;;;;;3.13;65.57;100735.69;4468001;32;35080;-66
2022/01/27 09:01:54;;;;;;;21.42;9.38;;;;;;;3.11;65.10;100732.06;4446849;32;33497;-63
2022/01/27 09:04:23;;;;;;;21.08;9.20;;;;;;;3.45;63.63;100727.38;4438607;32;32254;-64
2022/01/27 09:06:50;;;;;;;26.25;12.27;;;;;;;3.42;63.98;100716.84;4442589;32;32281;-66
2022/01/27 09:09:21;;;;;;;22.73;9.10;;;;;;;3.05;65.20;100726.41;4454135;32;34176;-66
2022/01/27 09:11:55;;;;;;;22.85;9.95;;;;;;;3.46;63.73;100722.41;4435293;32;34172;-66
2022/01/27 09:14:27;;;;;;;22.52;10.23;;;;;;;3.09;64.85;100738.72;4463563;32;33875;-65
2022/01/27 09:16:57;;;;;;;24.45;9.77;;;;;;;3.17;65.32;100717.28;4465658;32;34378;-65
2022/01/27 09:19:26;;;;;;;29.58;13.50;;;;;;;2.80;65.50;100729.34;4461377;32;35446;-64
2022/01/27 09:21:54;;;;;;;25.83;10.95;;;;;;;3.43;64.12;100739.16;4462618;32;33505;-65
2022/01/27 09:24:27;;;;;;;25.45;10.77;;;;;;;3.49;63.73;100738.00;4460552;32;34047;-66
2022/01/27 09:27:00;;;;;;;20.42;8.90;;;;;;;3.18;64.31;100729.28;4458184;32;34098;-65
2022/01/27 09:29:28;;;;;;;24.25;9.88;;;;;;;3.21;64.56;100739.81;4464600;32;34960;-64
2022/01/27 09:31:57;;;;;;;21.73;9.55;;;;;;;3.64;62.63;100743.59;4454455;32;34253;-64
2022/01/27 09:34:25;;;;;;;22.90;10.70;;;;;;;3.67;62.83;100743.88;4460833;32;34072;-65
2022/01/27 09:36:54;;;;;;;19.73;9.55;;;;;;;3.74;62.46;100733.38;4444890;32;33245;-65
2022/01/27 09:39:23;;;;;;;20.70;9.68;;;;;;;3.36;63.68;100740.25;4460804;32;33024;-65
2022/01/27 09:41:54;;;;;;;22.83;9.50;;;;;;;3.57;63.02;100736.13;4462476;32;33551;-65
2022/01/27 09:44:27;;;;;;;22.48;8.40;;;;;;;2.95;64.57;100733.28;4461655;32;33778;-65
2022/01/27 09:47:07;;;;;;;22.08;10.23;;;;;;;3.80;62.26;100727.88;4459482;32;33804;-65
2022/01/27 09:49:49;;;;;;;21.90;9.77;;;;;;;3.37;62.89;100738.63;4464538;32;34777;-65
2022/01/27 09:52:17;;;;;;;22.30;10.40;;;;;;;3.19;64.03;100728.53;4459524;32;33466;-64
2022/01/27 09:54:45;;;;;;;18.85;8.13;;;;;;;3.21;63.81;100729.56;4461834;32;34085;-63
2022/01/27 09:57:17;;;;;;;21.58;8.95;;;;;;;3.73;62.36;100733.25;4461592;32;34750;-65
2022/01/27 09:59:45;;;;;;;22.85;10.43;;;;;;;3.88;61.73;100723.41;4451450;32;34155;-64
2022/01/27 10:02:21;;;;;;;21.45;10.10;;;;;;;4.19;60.83;100726.03;4449707;32;32240;-65
2022/01/27 10:04:58;;;;;;;24.80;10.73;;;;;;;4.34;59.73;100727.31;4449428;32;33642;-64
2022/01/27 10:07:30;;;;;;;30.52;14.85;;;;;;;3.87;61.31;100719.06;4465201;32;34075;-65
2022/01/27 10:10:07;;;;;;;22.70;10.65;;;;;;;4.00;61.67;100713.31;4460174;32;34104;-65
2022/01/27 10:12:48;;;;;;;26.35;10.85;;;;;;;3.81;61.43;100708.28;4451506;32;34442;-62
2022/01/27 10:15:20;;;;;;;22.10;10.38;;;;;;;3.46;62.46;100703.56;4462919;32;34021;-63
2022/01/27 10:18:14;;;;;;;22.00;10.30;;;;;;;3.38;63.26;100697.78;4469863;32;33744;-65
2022/01/27 10:20:43;;;;;;;24.65;11.00;;;;;;;3.79;62.11;100697.91;4452295;32;34915;-63
2022/01/27 10:23:26;;;;;;;27.33;10.73;;;;;;;4.07;60.84;100687.44;4462886;32;34625;-65
2022/01/27 10:25:59;;;;;;;27.15;10.63;;;;;;;3.72;61.73;100686.22;4465005;32;34831;-65
2022/01/27 10:28:40;;;;;;;21.92;10.88;;;;;;;3.57;62.53;100669.50;4460537;32;31996;-64
2022/01/27 10:31:11;;;;;;;22.65;10.35;;;;;;;4.04;60.88;100662.44;4444134;32;34832;-64
2022/01/27 10:33:55;;;;;;;18.80;8.38;;;;;;;3.69;62.25;100662.91;4469084;32;32909;-65
2022/01/27 10:36:30;;;;;;;23.20;9.32;;;;;;;4.15;60.90;100663.31;4453438;32;33394;-65
2022/01/27 10:39:00;;;;;;;22.95;10.40;;;;;;;4.13;61.13;100665.78;4468450;32;34450;-65
2022/01/27 10:41:30;;;;;;;21.90;9.80;;;;;;;3.84;61.78;100650.47;4465760;32;33886;-64
2022/01/27 10:44:15;;;;;;;23.08;10.48;;;;;;;4.33;60.68;100643.47;4466195;32;34341;-65
2022/01/27 10:47:07;;;;;;;21.27;10.20;;;;;;;4.21;60.55;100637.28;4468461;32;33969;-64
2022/01/27 10:49:42;;;;;;;20.95;8.45;;;;;;;4.51;59.69;100633.81;4463098;32;34814;-64
2022/01/27 10:52:11;;;;;;;21.55;9.25;;;;;;;4.83;57.95;100628.75;4467885;32;33965;-64
2022/01/27 10:54:41;;;;;;;18.02;7.87;;;;;;;5.05;57.50;100627.91;4450810;32;33687;-64
2022/01/27 10:57:11;;;;;;;22.73;10.20;;;;;;;4.77;57.83;100627.34;4454929;32;32712;-64
2022/01/27 10:59:40;;;;;;;21.67;9.63;;;;;;;4.47;58.89;100624.97;4467858;32;33880;-65
2022/01/27 11:02:10;;;;;;;20.23;8.70;;;;;;;4.48;59.28;100621.66;4463498;32;34867;-65
2022/01/27 11:04:43;;;;;;;22.62;10.45;;;;;;;5.01;57.64;100634.44;4467952;32;33617;-65
2022/01/27 11:07:12;;;;;;;21.15;9.43;;;;;;;4.30;59.37;100622.69;4451200;32;33796;-64
2022/01/27 11:09:43;;;;;;;24.87;10.57;;;;;;;5.18;57.53;100617.81;4469548;32;32700;-65
2022/01/27 11:12:15;;;;;;;20.58;9.40;;;;;;;4.66;59.35;100623.91;4467771;32;33217;-65
2022/01/27 11:14:51;;;;;;;21.20;9.05;;;;;;;4.79;58.35;100616.44;4453195;32;33598;-64
2022/01/27 11:17:24;;;;;;;26.75;11.20;;;;;;;4.48;58.84;100596.00;4462342;32;34567;-65
2022/01/27 11:27:32;;;;;;;23.85;10.73;;;;;;;4.49;58.71;100592.63;4444408;32;33964;-64
2022/01/27 11:30:08;;;;;;;25.42;11.45;;;;;;;4.90;58.03;100584.78;4446960;32;34348;-65
2022/01/27 11:32:39;;;;;;;22.08;10.50;;;;;;;4.92;58.28;100588.41;4459185;32;34226;-63
2022/01/27 11:35:21;;;;;;;25.62;10.32;;;;;;;5.06;57.56;100588.59;4462745;32;33767;-63
2022/01/27 11:37:51;;;;;;;27.37;12.13;;;;;;;5.02;57.94;100587.47;4464594;32;33679;-63
2022/01/27 11:40:20;;;;;;;30.25;12.45;;;;;;;5.13;57.99;100572.91;4467667;32;33847;-64
2022/01/27 11:42:58;;;;;;;28.60;12.48;;;;;;;5.43;57.57;100570.94;4467800;32;34307;-64
2022/01/27 11:45:28;;;;;;;28.52;12.02;;;;;;;5.09;57.94;100573.44;4466988;32;34204;-64
2022/01/27 11:48:17;;;;;;;25.92;11.50;;;;;;;5.05;57.91;100562.00;4443371;32;33100;-63
2022/01/27 11:50:55;;;;;;;27.58;12.37;;;;;;;5.22;57.75;100552.19;4460727;32;33616;-63
2022/01/27 11:53:40;;;;;;;23.77;11.07;;;;;;;5.45;57.00;100553.97;4468495;32;34160;-63
2022/01/27 11:56:23;;;;;;;;;;;;;;;4.82;58.55;100552.50;4465806;32;33704;-63
2022/01/27 11:58:53;;;;;;;26.23;12.95;;;;;;;4.87;58.71;100548.63;4469141;32;34954;-63
2022/01/27 12:01:22;;;;;;;27.02;12.40;;;;;;;5.07;57.50;100544.16;4447537;32;31967;-64
2022/01/27 12:04:08;;;;;;;27.80;11.52;;;;;;;4.86;58.07;100549.41;4468853;32;34778;-63
2022/01/27 12:06:41;;;;;;;;;;;;;;;5.23;56.94;100544.56;4453435;32;34297;-64
2022/01/27 12:09:20;;;;;;;38.00;13.73;;;;;;;5.72;56.06;100543.22;4463603;32;34203;-62
2022/01/27 12:11:50;;;;;;;28.10;13.27;;;;;;;5.31;56.77;100543.53;4459505;32;33892;-62
2022/01/27 12:14:22;;;;;;;28.02;13.48;;;;;;;5.17;57.04;100533.81;4462190;32;35013;-64
2022/01/27 12:17:08;;;;;;;30.05;13.95;;;;;;;5.42;56.81;100540.88;4454973;32;33507;-63
2022/01/27 12:20:07;;;;;;;29.12;13.80;;;;;;;5.20;56.63;100546.91;4463322;32;34543;-63